»·PEaware :: N1511H KTVL-KMRY

N1511H :: KTVL-KMRY

FLIGHT INFORMATION

Flight Status: Arrived
Operator: Privately registered:
United States
More flights under this callsign
Pilot: Phillip S. (23877)
Aircraft: EMBRAER PHENOM 300
(E55P)
More flights by this aircraft type
Origin: KTVL Lake Tahoe
United States
Destination: KMRY Monterey Peninsula
United States
More flights between these airports :: More routes between these airports
Route: RICHY6 SPOOK LIN MOD SNS
File this flight plan on PilotEdge
Remarks: No Remarks
Altitude:
(Current/Filed)
28,000ft
Speed:
(Current/Filed)
400kts
Departed: 02-Mar-20 01:17 PM
Arrived: 02-Mar-20 01:56 PM
Distance/Time
Traveled:
164nm/0:38
Distance/Time
To Go:
Arrived

Flight Plot

Page will automatically refresh every two minutes.

Flight plan parsing failed; only flown route is shown


Map Options




Map Legend


Flown Route
Filed Route
Departure Airport
Arrival Airport
Navaid (VOR, NDB)
Fix

Horizontal Profiles

Position Reports

Time Latitude Longitude Heading Altitude Ground
Speed
02-Mar-20 12:46 38.892742 -119.998046 29 6262ft 0kts
02-Mar-20 12:47 38.892742 -119.998046 29 6262ft 0kts
02-Mar-20 12:48 38.892742 -119.998046 29 6262ft 0kts
02-Mar-20 12:49 38.892742 -119.998046 29 6262ft 0kts
02-Mar-20 12:50 38.892742 -119.998046 29 6262ft 0kts
02-Mar-20 12:51 38.892742 -119.998046 29 6262ft 0kts
02-Mar-20 12:52 38.892742 -119.998046 29 6262ft 0kts
02-Mar-20 12:53 38.892742 -119.998046 29 6262ft 0kts
02-Mar-20 12:54 38.892742 -119.998046 29 6262ft 0kts
02-Mar-20 12:55 38.892742 -119.998046 29 6262ft 0kts
02-Mar-20 12:56 38.892742 -119.998046 29 6262ft 0kts
02-Mar-20 12:57 38.892742 -119.998046 29 6262ft 0kts
02-Mar-20 12:58 38.892742 -119.998046 29 6262ft 0kts
02-Mar-20 12:59 38.892742 -119.998046 29 6262ft 0kts
02-Mar-20 13:00 38.892742 -119.998046 29 6262ft 0kts
02-Mar-20 13:01 38.892742 -119.998046 29 6262ft 0kts
02-Mar-20 13:02 38.892742 -119.998046 29 6262ft 0kts
02-Mar-20 13:03 38.892742 -119.998046 29 6262ft 0kts
02-Mar-20 13:04 38.892742 -119.998046 29 6262ft 0kts
02-Mar-20 13:05 38.892742 -119.998046 29 6262ft 0kts
02-Mar-20 13:06 38.892742 -119.998046 29 6262ft 0kts
02-Mar-20 13:07 38.892743 -119.998045 29 6262ft 0kts
02-Mar-20 13:08 38.892500 -119.997387 138 6262ft 7kts
02-Mar-20 13:09 38.888886 -119.997854 192 6262ft 19kts
02-Mar-20 13:10 38.883345 -119.999502 192 6262ft 10kts
02-Mar-20 13:11 38.882908 -119.999512 160 6262ft 0kts
02-Mar-20 13:12 38.882905 -119.999511 160 6262ft 0kts
02-Mar-20 13:13 38.882902 -119.999510 160 6262ft 0kts
02-Mar-20 13:14 38.882900 -119.999508 160 6262ft 0kts
02-Mar-20 13:15 38.882716 -119.999304 114 6262ft 4kts
02-Mar-20 13:16 38.886425 -119.997544 10 6262ft 59kts
02-Mar-20 13:17 38.916668 -119.993121 349 7624ft 117kts
02-Mar-20 13:18 38.950755 -120.005749 349 10042ft 175kts
02-Mar-20 13:19 39.019456 -120.045947 316 10025ft 310kts
02-Mar-20 13:20 39.070038 -120.117823 317 10014ft 240kts
02-Mar-20 13:21 39.112469 -120.176311 321 11432ft 229kts
02-Mar-20 13:22 39.160538 -120.244100 309 14283ft 286kts
02-Mar-20 13:23 39.126075 -120.337049 192 17102ft 359kts
02-Mar-20 13:24 39.033071 -120.304024 161 19938ft 357kts
02-Mar-20 13:25 38.933275 -120.288888 173 22426ft 371kts
02-Mar-20 13:26 38.826503 -120.280067 173 24246ft 394kts
02-Mar-20 13:27 38.715300 -120.270993 172 26048ft 406kts
02-Mar-20 13:28 38.605390 -120.292273 224 27850ft 415kts
02-Mar-20 13:29 38.525039 -120.407209 231 28129ft 456kts
02-Mar-20 13:30 38.434270 -120.529269 229 28112ft 490kts
02-Mar-20 13:31 38.337439 -120.657893 229 28110ft 513kts
02-Mar-20 13:32 38.237534 -120.789970 229 28095ft 518kts
02-Mar-20 13:33 38.137386 -120.921772 229 28102ft 518kts
02-Mar-20 13:34 38.018210 -121.015810 178 28083ft 518kts
02-Mar-20 13:35 37.884519 -120.989978 165 27064ft 473kts
02-Mar-20 13:36 37.755063 -120.971425 170 25266ft 464kts
02-Mar-20 13:37 37.627208 -120.961404 185 23467ft 463kts
02-Mar-20 13:38 37.511869 -121.032168 211 21673ft 460kts
02-Mar-20 13:39 37.400888 -121.110625 209 19879ft 456kts
02-Mar-20 13:40 37.289387 -121.186397 208 18074ft 453kts
02-Mar-20 13:42 37.180158 -121.259865 208 16279ft 411kts
02-Mar-20 13:43 37.087416 -121.321961 207 14473ft 355kts
02-Mar-20 13:44 37.003222 -121.378166 206 12671ft 332kts
02-Mar-20 13:45 36.923341 -121.431333 206 10873ft 319kts
02-Mar-20 13:46 36.847046 -121.484643 212 9071ft 307kts
02-Mar-20 13:47 36.778792 -121.530929 207 7263ft 261kts
02-Mar-20 13:48 36.715103 -121.570893 207 5493ft 244kts
02-Mar-20 13:49 36.659565 -121.604847 207 4183ft 212kts
02-Mar-20 13:50 36.613347 -121.632364 207 3963ft 160kts
02-Mar-20 13:51 36.578564 -121.661370 227 3812ft 155kts
02-Mar-20 13:52 36.556380 -121.710283 270 2951ft 167kts
02-Mar-20 13:53 36.560424 -121.766113 288 1804ft 146kts
02-Mar-20 13:54 36.574731 -121.809167 295 739ft 120kts
02-Mar-20 13:55 36.587066 -121.844487 291 208ft 84kts
02-Mar-20 13:56 36.588554 -121.851580 291 208ft 5kts
02-Mar-20 13:56 36.589351 -121.854030 286 208ft 18kts
02-Mar-20 13:58 36.588627 -121.856763 72 208ft 9kts

Navigation Log

Ident Type
Flight plan parsing failed, navigation log unavailable